Dirección General De Aeronáutica Civil

Dirección Meteorológica de Chile - Servicios Climáticos

Informe General de Control de Calidad de la Estación

Listado de niveles de control de calidad para algunos parámetros
Estación San Javier Villa Alegre (350089)
Fecha de Revisión de los datos :

Elementos

Registros Niveles de Control Total
Nivel 0 Nivel 1 Nivel 2 Nivel 3 Errores Porcentaje
01 Temperatura del Aire Seco 124.244 0 . 512 0.41 % 0 . 0 . 512 0.41 %
02 Temperatura de Rocío 124.239 0 . 0 . 0 . 0 . 0 0.00 %
03 Humedad Relativa del Aire 124.242 0 . 0 . 0 . 0 . 0 0.00 %
04 Temperatura Máxima PM 1.019 0 . 0 . 0 . 0 . 0 0.00 %
05 Temperatura Mínima AM 1.024 0 . 0 . 0 . 0 . 0 0.00 %
06 Agua Caida, Acumulada 6 Horas 21.616 0 . 0 . 0 . 0 . 0 0.00 %
07 Presión Atm. a Nivel de Estación (QFE) 123.626 0 . 0 . 0 . 0 . 0 0.00 %
08 Presión Atm. a Nivel Medio del Mar (QFF) 24.104 0 . 0 . 0 . 0 . 0 0.00 %
09 Presión Atm. Estándar OACI (QNH) 24.104 0 . 0 . 0 . 0 . 0 0.00 %

Totales

568.218 . 0.0000 % . 0.0901 % . 0.0000 % . 0.0000 % 512 0.0901 %

Detalle de Errores Encontrados

Nivel Fecha del Dato Descripción Información Error Fecha Ingreso
1 2013-04-17 11:00:00 Ts debe ser mayor o igual a Td Ts=7.8 - Td=7.9 2023-11-19 01:42:00
1 2013-04-22 10:00:00 Ts debe ser mayor o igual a Td Ts=8.6 - Td=8.7 2023-11-19 01:42:00
1 2013-04-22 11:00:00 Ts debe ser mayor o igual a Td Ts=9.1 - Td=9.2 2023-11-19 01:42:00
1 2013-04-28 09:00:00 Ts debe ser mayor o igual a Td Ts=6.7 - Td=6.8 2023-11-19 01:42:00
1 2013-04-30 06:00:00 Ts debe ser mayor o igual a Td Ts=6.6 - Td=6.7 2023-11-19 01:42:00
1 2013-04-30 12:00:00 Ts debe ser mayor o igual a Td Ts=8.3 - Td=8.4 2023-11-19 01:42:00
1 2013-05-04 05:00:00 Ts debe ser mayor o igual a Td Ts=7.0 - Td=7.1 2023-11-19 01:42:00
1 2013-05-05 05:00:00 Ts debe ser mayor o igual a Td Ts=8.2 - Td=8.3 2023-11-19 01:42:00
1 2013-05-05 06:00:00 Ts debe ser mayor o igual a Td Ts=8.8 - Td=8.9 2023-11-19 01:42:00
1 2013-05-05 07:00:00 Ts debe ser mayor o igual a Td Ts=9.0 - Td=9.1 2023-11-19 01:42:00
1 2013-05-05 08:00:00 Ts debe ser mayor o igual a Td Ts=8.6 - Td=8.7 2023-11-19 01:42:00
1 2013-05-08 12:00:00 Ts debe ser mayor o igual a Td Ts=6.6 - Td=6.7 2023-11-19 01:42:00
1 2013-05-09 12:00:00 Ts debe ser mayor o igual a Td Ts=7.2 - Td=7.3 2023-11-19 01:42:00
1 2013-05-09 13:00:00 Ts debe ser mayor o igual a Td Ts=7.4 - Td=7.5 2023-11-19 01:42:00
1 2013-05-11 10:00:00 Ts debe ser mayor o igual a Td Ts=10.6 - Td=10.7 2023-11-19 01:42:00
1 2013-05-17 15:00:00 Ts debe ser mayor o igual a Td Ts=7.4 - Td=7.5 2023-11-19 01:42:00
1 2013-05-19 07:00:00 Ts debe ser mayor o igual a Td Ts=8.3 - Td=8.4 2023-11-19 01:42:00
1 2013-05-20 14:00:00 Ts debe ser mayor o igual a Td Ts=7.3 - Td=7.4 2023-11-19 01:42:00
1 2013-05-21 11:00:00 Ts debe ser mayor o igual a Td Ts=6.9 - Td=7.0 2023-11-19 01:42:00
1 2013-05-21 14:00:00 Ts debe ser mayor o igual a Td Ts=8.3 - Td=8.4 2023-11-19 01:42:00
1 2013-05-22 14:00:00 Ts debe ser mayor o igual a Td Ts=6.8 - Td=6.9 2023-11-19 01:42:00
1 2013-05-29 09:00:00 Ts debe ser mayor o igual a Td Ts=8.3 - Td=8.4 2023-11-19 01:42:00
1 2013-05-30 06:00:00 Ts debe ser mayor o igual a Td Ts=6.8 - Td=6.9 2023-11-19 01:43:00
1 2013-05-30 08:00:00 Ts debe ser mayor o igual a Td Ts=6.7 - Td=6.8 2023-11-19 01:43:00
1 2013-05-30 13:00:00 Ts debe ser mayor o igual a Td Ts=8.1 - Td=8.2 2023-11-19 01:43:00
1 2013-06-02 04:00:00 Ts debe ser mayor o igual a Td Ts=8.8 - Td=8.9 2023-11-19 01:43:00
1 2013-06-02 13:00:00 Ts debe ser mayor o igual a Td Ts=10.6 - Td=10.7 2023-11-19 01:43:00
1 2013-06-13 13:00:00 Ts debe ser mayor o igual a Td Ts=8.5 - Td=8.6 2023-11-19 01:43:00
1 2013-06-14 10:00:00 Ts debe ser mayor o igual a Td Ts=10.5 - Td=10.6 2023-11-19 01:43:00
1 2013-06-15 08:00:00 Ts debe ser mayor o igual a Td Ts=9.1 - Td=9.2 2023-11-19 01:43:00
1 2013-06-22 06:00:00 Ts debe ser mayor o igual a Td Ts=7.7 - Td=7.8 2023-11-19 01:43:00
1 2013-06-22 11:00:00 Ts debe ser mayor o igual a Td Ts=7.2 - Td=7.3 2023-11-19 01:43:00
1 2013-06-22 12:00:00 Ts debe ser mayor o igual a Td Ts=7.5 - Td=7.6 2023-11-19 01:43:00
1 2013-06-28 01:00:00 Ts debe ser mayor o igual a Td Ts=10.6 - Td=10.7 2023-11-19 01:43:00
1 2013-06-28 05:00:00 Ts debe ser mayor o igual a Td Ts=10.4 - Td=10.5 2023-11-19 01:43:00
1 2013-06-29 08:00:00 Ts debe ser mayor o igual a Td Ts=8.8 - Td=8.9 2023-11-19 01:43:00
1 2013-06-29 09:00:00 Ts debe ser mayor o igual a Td Ts=8.1 - Td=8.2 2023-11-19 01:43:00
1 2013-07-03 16:00:00 Ts debe ser mayor o igual a Td Ts=9.2 - Td=9.3 2023-11-19 01:43:00
1 2013-07-04 01:00:00 Ts debe ser mayor o igual a Td Ts=7.4 - Td=7.5 2023-11-19 01:43:00
1 2013-07-04 03:00:00 Ts debe ser mayor o igual a Td Ts=7.3 - Td=7.4 2023-11-19 01:43:00
1 2013-07-04 09:00:00 Ts debe ser mayor o igual a Td Ts=6.8 - Td=6.9 2023-11-19 01:43:00
1 2013-07-04 10:00:00 Ts debe ser mayor o igual a Td Ts=6.9 - Td=7.0 2023-11-19 01:43:00
1 2013-07-04 12:00:00 Ts debe ser mayor o igual a Td Ts=7.2 - Td=7.3 2023-11-19 01:43:00
1 2013-07-04 18:00:00 Ts debe ser mayor o igual a Td Ts=8.1 - Td=8.2 2023-11-19 01:43:00
1 2013-07-05 06:00:00 Ts debe ser mayor o igual a Td Ts=7.6 - Td=7.7 2023-11-19 01:43:00
1 2013-07-05 09:00:00 Ts debe ser mayor o igual a Td Ts=7.6 - Td=7.7 2023-11-19 01:43:00
1 2013-07-05 10:00:00 Ts debe ser mayor o igual a Td Ts=7.7 - Td=7.8 2023-11-19 01:43:00
1 2013-07-05 11:00:00 Ts debe ser mayor o igual a Td Ts=7.6 - Td=7.7 2023-11-19 01:43:00
1 2013-07-05 14:00:00 Ts debe ser mayor o igual a Td Ts=8.4 - Td=8.5 2023-11-19 01:43:00
1 2013-07-05 15:00:00 Ts debe ser mayor o igual a Td Ts=8.5 - Td=8.6 2023-11-19 01:43:00
1 2013-07-05 16:00:00 Ts debe ser mayor o igual a Td Ts=9.1 - Td=9.2 2023-11-19 01:43:00
1 2013-07-05 21:00:00 Ts debe ser mayor o igual a Td Ts=7.6 - Td=7.7 2023-11-19 01:43:00
1 2013-07-05 22:00:00 Ts debe ser mayor o igual a Td Ts=7.6 - Td=7.7 2023-11-19 01:43:00
1 2013-07-05 23:00:00 Ts debe ser mayor o igual a Td Ts=7.5 - Td=7.6 2023-11-19 01:43:00
1 2013-07-06 01:00:00 Ts debe ser mayor o igual a Td Ts=7.2 - Td=7.3 2023-11-19 01:43:00
1 2013-07-06 07:00:00 Ts debe ser mayor o igual a Td Ts=6.8 - Td=6.9 2023-11-19 01:43:00
1 2013-07-09 21:00:00 Ts debe ser mayor o igual a Td Ts=12.4 - Td=12.5 2023-11-19 01:43:00
1 2013-07-10 07:00:00 Ts debe ser mayor o igual a Td Ts=12.2 - Td=12.3 2023-11-19 01:43:00
1 2013-07-10 08:00:00 Ts debe ser mayor o igual a Td Ts=12.2 - Td=12.3 2023-11-19 01:43:00
1 2013-07-11 05:00:00 Ts debe ser mayor o igual a Td Ts=11.5 - Td=11.6 2023-11-19 01:43:00
1 2013-07-12 02:00:00 Ts debe ser mayor o igual a Td Ts=8.8 - Td=8.9 2023-11-19 01:43:00
1 2013-07-12 06:00:00 Ts debe ser mayor o igual a Td Ts=9.3 - Td=9.4 2023-11-19 01:43:00
1 2013-07-14 00:00:00 Ts debe ser mayor o igual a Td Ts=9.0 - Td=9.1 2023-11-19 01:43:00
1 2013-07-14 01:00:00 Ts debe ser mayor o igual a Td Ts=8.9 - Td=9.0 2023-11-19 01:43:00
1 2013-07-14 04:00:00 Ts debe ser mayor o igual a Td Ts=8.1 - Td=8.2 2023-11-19 01:43:00
1 2013-07-14 07:00:00 Ts debe ser mayor o igual a Td Ts=7.7 - Td=7.8 2023-11-19 01:43:00
1 2013-07-15 02:00:00 Ts debe ser mayor o igual a Td Ts=11.5 - Td=11.6 2023-11-19 01:43:00
1 2013-07-17 07:00:00 Ts debe ser mayor o igual a Td Ts=6.7 - Td=6.8 2023-11-19 01:43:00
1 2013-07-17 11:00:00 Ts debe ser mayor o igual a Td Ts=6.9 - Td=7.0 2023-11-19 01:43:00
1 2013-07-17 13:00:00 Ts debe ser mayor o igual a Td Ts=7.2 - Td=7.3 2023-11-19 01:43:00
1 2013-07-18 04:00:00 Ts debe ser mayor o igual a Td Ts=6.9 - Td=7.0 2023-11-19 01:43:00
1 2013-07-27 12:00:00 Ts debe ser mayor o igual a Td Ts=6.6 - Td=6.7 2023-11-19 01:43:00
1 2013-07-28 05:00:00 Ts debe ser mayor o igual a Td Ts=7.8 - Td=7.9 2023-11-19 01:43:00
1 2013-07-28 06:00:00 Ts debe ser mayor o igual a Td Ts=8.7 - Td=8.8 2023-11-19 01:43:00
1 2013-07-28 08:00:00 Ts debe ser mayor o igual a Td Ts=9.2 - Td=9.3 2023-11-19 01:43:00
1 2013-07-28 16:00:00 Ts debe ser mayor o igual a Td Ts=9.1 - Td=9.2 2023-11-19 01:43:00
1 2013-07-29 02:00:00 Ts debe ser mayor o igual a Td Ts=8.6 - Td=8.7 2023-11-19 01:43:00
1 2013-07-29 03:00:00 Ts debe ser mayor o igual a Td Ts=8.6 - Td=8.7 2023-11-19 01:43:00
1 2013-07-29 10:00:00 Ts debe ser mayor o igual a Td Ts=8.1 - Td=8.2 2023-11-19 01:43:00
1 2013-08-01 13:00:00 Ts debe ser mayor o igual a Td Ts=7.4 - Td=7.5 2023-11-19 01:43:00
1 2013-08-02 14:00:00 Ts debe ser mayor o igual a Td Ts=7.0 - Td=7.1 2023-11-19 01:43:00
1 2013-08-03 12:00:00 Ts debe ser mayor o igual a Td Ts=8.2 - Td=8.3 2023-11-19 01:44:00
1 2013-08-05 04:00:00 Ts debe ser mayor o igual a Td Ts=8.1 - Td=8.2 2023-11-19 01:44:00
1 2013-08-07 08:00:00 Ts debe ser mayor o igual a Td Ts=8.1 - Td=8.2 2023-11-19 01:44:00
1 2013-08-07 10:00:00 Ts debe ser mayor o igual a Td Ts=8.8 - Td=8.9 2023-11-19 01:44:00
1 2013-08-11 11:00:00 Ts debe ser mayor o igual a Td Ts=8.9 - Td=9.0 2023-11-19 01:44:00
1 2013-08-11 22:00:00 Ts debe ser mayor o igual a Td Ts=10.7 - Td=10.8 2023-11-19 01:44:00
1 2013-08-12 02:00:00 Ts debe ser mayor o igual a Td Ts=7.7 - Td=7.8 2023-11-19 01:44:00
1 2013-08-12 09:00:00 Ts debe ser mayor o igual a Td Ts=7.6 - Td=7.7 2023-11-19 01:44:00
1 2013-08-12 10:00:00 Ts debe ser mayor o igual a Td Ts=7.2 - Td=7.3 2023-11-19 01:44:00
1 2013-09-02 05:00:00 Ts debe ser mayor o igual a Td Ts=7.4 - Td=7.5 2023-11-19 01:44:00
1 2013-09-02 06:00:00 Ts debe ser mayor o igual a Td Ts=7.3 - Td=7.4 2023-11-19 01:44:00
1 2013-09-03 01:00:00 Ts debe ser mayor o igual a Td Ts=7.2 - Td=7.3 2023-11-19 01:44:00
1 2013-09-03 04:00:00 Ts debe ser mayor o igual a Td Ts=6.7 - Td=6.8 2023-11-19 01:44:00
1 2013-09-03 05:00:00 Ts debe ser mayor o igual a Td Ts=7.0 - Td=7.1 2023-11-19 01:44:00
1 2013-09-03 11:00:00 Ts debe ser mayor o igual a Td Ts=7.4 - Td=7.5 2023-11-19 01:44:00
1 2013-09-03 13:00:00 Ts debe ser mayor o igual a Td Ts=8.9 - Td=9.0 2023-11-19 01:44:00
1 2013-09-04 07:00:00 Ts debe ser mayor o igual a Td Ts=8.9 - Td=9.0 2023-11-19 01:44:00
1 2013-09-05 05:00:00 Ts debe ser mayor o igual a Td Ts=11.5 - Td=11.6 2023-11-19 01:44:00
1 2013-09-08 05:00:00 Ts debe ser mayor o igual a Td Ts=14.0 - Td=14.1 2023-11-19 01:44:00
1 2013-09-08 06:00:00 Ts debe ser mayor o igual a Td Ts=13.9 - Td=14.0 2023-11-19 01:44:00
1 2013-09-08 09:00:00 Ts debe ser mayor o igual a Td Ts=13.4 - Td=13.5 2023-11-19 01:44:00
1 2013-09-09 10:00:00 Ts debe ser mayor o igual a Td Ts=13.3 - Td=13.4 2023-11-19 01:44:00
1 2013-10-21 11:00:00 Ts debe ser mayor o igual a Td Ts=10.5 - Td=10.6 2023-11-19 01:45:00
1 2013-11-01 10:00:00 Ts debe ser mayor o igual a Td Ts=8.2 - Td=8.3 2023-11-19 01:45:00
1 2014-04-04 06:00:00 Ts debe ser mayor o igual a Td Ts=7.6 - Td=7.7 2023-11-19 01:47:00
1 2014-04-05 14:00:00 Ts debe ser mayor o igual a Td Ts=9.2 - Td=9.3 2023-11-19 01:47:00
1 2014-04-06 11:00:00 Ts debe ser mayor o igual a Td Ts=7.6 - Td=7.7 2023-11-19 01:47:00
1 2014-04-06 14:00:00 Ts debe ser mayor o igual a Td Ts=10.3 - Td=10.4 2023-11-19 01:47:00
1 2014-04-24 15:00:00 Ts debe ser mayor o igual a Td Ts=10.6 - Td=10.7 2023-11-19 01:47:00
1 2014-04-25 14:00:00 Ts debe ser mayor o igual a Td Ts=8.4 - Td=8.5 2023-11-19 01:47:00
1 2014-04-25 15:00:00 Ts debe ser mayor o igual a Td Ts=9.4 - Td=9.5 2023-11-19 01:47:00
1 2014-05-02 05:00:00 Ts debe ser mayor o igual a Td Ts=11.6 - Td=11.7 2023-11-19 01:47:00
1 2014-05-06 08:00:00 Ts debe ser mayor o igual a Td Ts=9.2 - Td=9.3 2023-11-19 01:47:00
1 2014-05-07 12:00:00 Ts debe ser mayor o igual a Td Ts=11.6 - Td=11.7 2023-11-19 01:47:00
1 2014-05-09 11:00:00 Ts debe ser mayor o igual a Td Ts=11.4 - Td=11.5 2023-11-19 01:47:00
1 2014-05-10 09:00:00 Ts debe ser mayor o igual a Td Ts=12.4 - Td=12.5 2023-11-19 01:48:00
1 2014-05-15 08:00:00 Ts debe ser mayor o igual a Td Ts=9.4 - Td=9.5 2023-11-19 01:48:00
1 2014-05-19 02:00:00 Ts debe ser mayor o igual a Td Ts=7.4 - Td=7.5 2023-11-19 01:48:00
1 2014-05-19 06:00:00 Ts debe ser mayor o igual a Td Ts=9.1 - Td=9.2 2023-11-19 01:48:00
1 2014-05-19 16:00:00 Ts debe ser mayor o igual a Td Ts=9.4 - Td=9.5 2023-11-19 01:48:00
1 2014-05-19 23:00:00 Ts debe ser mayor o igual a Td Ts=9.2 - Td=9.3 2023-11-19 01:48:00
1 2014-05-20 03:00:00 Ts debe ser mayor o igual a Td Ts=9.4 - Td=9.5 2023-11-19 01:48:00
1 2014-05-20 08:00:00 Ts debe ser mayor o igual a Td Ts=8.8 - Td=8.9 2023-11-19 01:48:00
1 2014-05-20 09:00:00 Ts debe ser mayor o igual a Td Ts=8.7 - Td=8.8 2023-11-19 01:48:00
1 2014-05-30 08:00:00 Ts debe ser mayor o igual a Td Ts=8.2 - Td=8.3 2023-11-19 01:48:00
1 2014-05-31 04:00:00 Ts debe ser mayor o igual a Td Ts=7.0 - Td=7.1 2023-11-19 01:48:00
1 2014-05-31 06:00:00 Ts debe ser mayor o igual a Td Ts=8.4 - Td=8.5 2023-11-19 01:48:00
1 2014-05-31 07:00:00 Ts debe ser mayor o igual a Td Ts=8.4 - Td=8.5 2023-11-19 01:48:00
1 2014-05-31 10:00:00 Ts debe ser mayor o igual a Td Ts=8.7 - Td=8.8 2023-11-19 01:48:00
1 2014-05-31 23:00:00 Ts debe ser mayor o igual a Td Ts=6.9 - Td=7.0 2023-11-19 01:48:00
1 2014-06-01 05:00:00 Ts debe ser mayor o igual a Td Ts=7.2 - Td=7.3 2023-11-19 01:48:00
1 2014-06-08 20:00:00 Ts debe ser mayor o igual a Td Ts=8.9 - Td=9.0 2023-11-19 01:48:00
1 2014-06-09 09:00:00 Ts debe ser mayor o igual a Td Ts=6.7 - Td=6.8 2023-11-19 01:48:00
1 2014-06-09 14:00:00 Ts debe ser mayor o igual a Td Ts=8.9 - Td=9.0 2023-11-19 01:48:00
1 2014-06-10 05:00:00 Ts debe ser mayor o igual a Td Ts=7.8 - Td=7.9 2023-11-19 01:48:00
1 2014-06-10 08:00:00 Ts debe ser mayor o igual a Td Ts=7.7 - Td=7.8 2023-11-19 01:48:00
1 2014-06-12 11:00:00 Ts debe ser mayor o igual a Td Ts=6.6 - Td=6.7 2023-11-19 01:48:00
1 2014-06-16 04:00:00 Ts debe ser mayor o igual a Td Ts=7.5 - Td=7.6 2023-11-19 01:48:00
1 2014-06-16 08:00:00 Ts debe ser mayor o igual a Td Ts=7.8 - Td=7.9 2023-11-19 01:48:00
1 2014-06-16 12:00:00 Ts debe ser mayor o igual a Td Ts=6.6 - Td=6.7 2023-11-19 01:48:00
1 2014-06-19 16:00:00 Ts debe ser mayor o igual a Td Ts=8.3 - Td=8.4 2023-11-19 01:48:00
1 2014-06-23 06:00:00 Ts debe ser mayor o igual a Td Ts=8.3 - Td=8.4 2023-11-19 01:48:00
1 2014-06-23 07:00:00 Ts debe ser mayor o igual a Td Ts=7.8 - Td=7.9 2023-11-19 01:48:00
1 2014-06-23 09:00:00 Ts debe ser mayor o igual a Td Ts=7.0 - Td=7.1 2023-11-19 01:48:00
1 2014-06-23 13:00:00 Ts debe ser mayor o igual a Td Ts=6.9 - Td=7.0 2023-11-19 01:48:00
1 2014-06-23 14:00:00 Ts debe ser mayor o igual a Td Ts=7.1 - Td=7.2 2023-11-19 01:48:00
1 2014-07-02 10:00:00 Ts debe ser mayor o igual a Td Ts=7.2 - Td=7.3 2023-11-19 01:48:00
1 2014-07-02 13:00:00 Ts debe ser mayor o igual a Td Ts=7.7 - Td=7.8 2023-11-19 01:48:00
1 2014-07-11 03:00:00 Ts debe ser mayor o igual a Td Ts=7.5 - Td=7.6 2023-11-19 01:48:00
1 2014-07-11 08:00:00 Ts debe ser mayor o igual a Td Ts=7.6 - Td=7.7 2023-11-19 01:48:00
1 2014-07-19 12:00:00 Ts debe ser mayor o igual a Td Ts=6.9 - Td=7.0 2023-11-19 01:48:00
1 2014-07-19 13:00:00 Ts debe ser mayor o igual a Td Ts=6.9 - Td=7.0 2023-11-19 01:48:00
1 2014-07-19 14:00:00 Ts debe ser mayor o igual a Td Ts=7.4 - Td=7.5 2023-11-19 01:48:00
1 2014-07-20 09:00:00 Ts debe ser mayor o igual a Td Ts=6.6 - Td=6.7 2023-11-19 01:48:00
1 2014-07-20 13:00:00 Ts debe ser mayor o igual a Td Ts=7.0 - Td=7.1 2023-11-19 01:48:00
1 2014-07-26 10:00:00 Ts debe ser mayor o igual a Td Ts=7.7 - Td=7.8 2023-11-19 01:48:00
1 2014-07-30 06:00:00 Ts debe ser mayor o igual a Td Ts=9.3 - Td=9.4 2023-11-19 01:48:00
1 2014-07-30 07:00:00 Ts debe ser mayor o igual a Td Ts=9.3 - Td=9.4 2023-11-19 01:48:00
1 2014-07-31 06:00:00 Ts debe ser mayor o igual a Td Ts=9.1 - Td=9.2 2023-11-19 01:48:00
1 2014-07-31 12:00:00 Ts debe ser mayor o igual a Td Ts=10.3 - Td=10.4 2023-11-19 01:48:00
1 2014-08-01 05:00:00 Ts debe ser mayor o igual a Td Ts=12.7 - Td=12.8 2023-11-19 01:49:00
1 2014-08-01 08:00:00 Ts debe ser mayor o igual a Td Ts=12.6 - Td=12.7 2023-11-19 01:49:00
1 2014-08-01 12:00:00 Ts debe ser mayor o igual a Td Ts=12.6 - Td=12.7 2023-11-19 01:49:00
1 2014-08-06 07:00:00 Ts debe ser mayor o igual a Td Ts=8.8 - Td=8.9 2023-11-19 01:49:00
1 2014-08-10 03:00:00 Ts debe ser mayor o igual a Td Ts=7.2 - Td=7.3 2023-11-19 01:49:00
1 2014-08-10 06:00:00 Ts debe ser mayor o igual a Td Ts=8.1 - Td=8.2 2023-11-19 01:49:00
1 2014-08-10 07:00:00 Ts debe ser mayor o igual a Td Ts=8.3 - Td=8.4 2023-11-19 01:49:00
1 2014-08-15 08:00:00 Ts debe ser mayor o igual a Td Ts=7.1 - Td=7.2 2023-11-19 01:49:00
1 2014-08-16 11:00:00 Ts debe ser mayor o igual a Td Ts=6.9 - Td=7.0 2023-11-19 01:49:00
1 2014-08-16 13:00:00 Ts debe ser mayor o igual a Td Ts=8.2 - Td=8.3 2023-11-19 01:49:00
1 2014-08-17 12:00:00 Ts debe ser mayor o igual a Td Ts=8.1 - Td=8.2 2023-11-19 01:49:00
1 2014-08-18 11:00:00 Ts debe ser mayor o igual a Td Ts=9.3 - Td=9.4 2023-11-19 01:49:00
1 2014-08-31 04:00:00 Ts debe ser mayor o igual a Td Ts=8.9 - Td=9.0 2023-11-19 01:49:00
1 2014-08-31 06:00:00 Ts debe ser mayor o igual a Td Ts=8.4 - Td=8.5 2023-11-19 01:49:00
1 2014-08-31 11:00:00 Ts debe ser mayor o igual a Td Ts=8.8 - Td=8.9 2023-11-19 01:49:00
1 2014-09-05 07:00:00 Ts debe ser mayor o igual a Td Ts=8.8 - Td=8.9 2023-11-19 01:49:00
1 2014-09-08 10:00:00 Ts debe ser mayor o igual a Td Ts=8.2 - Td=8.3 2023-11-19 01:49:00
1 2014-09-08 11:00:00 Ts debe ser mayor o igual a Td Ts=8.7 - Td=8.8 2023-11-19 01:49:00
1 2014-09-16 08:00:00 Ts debe ser mayor o igual a Td Ts=7.5 - Td=7.6 2023-11-19 01:49:00
1 2015-05-02 09:00:00 Ts debe ser mayor o igual a Td Ts=8.5 - Td=8.6 2023-11-19 01:52:00
1 2015-05-06 14:00:00 Ts debe ser mayor o igual a Td Ts=7.6 - Td=7.7 2023-11-19 01:52:00
1 2015-05-10 11:00:00 Ts debe ser mayor o igual a Td Ts=8.3 - Td=8.4 2023-11-19 01:52:00
1 2015-05-10 13:00:00 Ts debe ser mayor o igual a Td Ts=9.4 - Td=9.5 2023-11-19 01:52:00
1 2015-05-22 05:00:00 Ts debe ser mayor o igual a Td Ts=10.3 - Td=10.4 2023-11-19 01:52:00
1 2015-05-22 08:00:00 Ts debe ser mayor o igual a Td Ts=8.7 - Td=8.8 2023-11-19 01:52:00
1 2015-05-22 11:00:00 Ts debe ser mayor o igual a Td Ts=7.7 - Td=7.8 2023-11-19 01:52:00
1 2015-05-22 14:00:00 Ts debe ser mayor o igual a Td Ts=10.7 - Td=10.8 2023-11-19 01:52:00
1 2015-05-22 15:00:00 Ts debe ser mayor o igual a Td Ts=11.7 - Td=11.8 2023-11-19 01:52:00
1 2015-05-29 02:00:00 Ts debe ser mayor o igual a Td Ts=7.7 - Td=7.8 2023-11-19 01:52:00
1 2015-05-29 07:00:00 Ts debe ser mayor o igual a Td Ts=7.8 - Td=7.9 2023-11-19 01:52:00
1 2015-05-30 03:00:00 Ts debe ser mayor o igual a Td Ts=7.6 - Td=7.7 2023-11-19 01:52:00
1 2015-05-30 04:00:00 Ts debe ser mayor o igual a Td Ts=7.3 - Td=7.4 2023-11-19 01:52:00
1 2015-05-30 08:00:00 Ts debe ser mayor o igual a Td Ts=8.5 - Td=8.6 2023-11-19 01:52:00
1 2015-05-30 12:00:00 Ts debe ser mayor o igual a Td Ts=8.7 - Td=8.8 2023-11-19 01:52:00
1 2015-05-30 15:00:00 Ts debe ser mayor o igual a Td Ts=10.3 - Td=10.4 2023-11-19 01:52:00
1 2015-05-31 10:00:00 Ts debe ser mayor o igual a Td Ts=5.7 - Td=5.8 2023-11-19 01:52:00
1 2015-06-01 04:00:00 Ts debe ser mayor o igual a Td Ts=9.3 - Td=9.4 2023-11-19 01:52:00
1 2015-06-02 04:00:00 Ts debe ser mayor o igual a Td Ts=8.4 - Td=8.5 2023-11-19 01:52:00
1 2015-06-03 09:00:00 Ts debe ser mayor o igual a Td Ts=10.7 - Td=10.8 2023-11-19 01:52:00
1 2015-06-04 06:00:00 Ts debe ser mayor o igual a Td Ts=10.8 - Td=10.9 2023-11-19 01:52:00
1 2015-06-04 13:00:00 Ts debe ser mayor o igual a Td Ts=11.6 - Td=11.7 2023-11-19 01:52:00
1 2015-06-07 12:00:00 Ts debe ser mayor o igual a Td Ts=7.8 - Td=7.9 2023-11-19 01:52:00
1 2015-06-08 07:00:00 Ts debe ser mayor o igual a Td Ts=7.2 - Td=7.3 2023-11-19 01:52:00
1 2015-06-17 13:00:00 Ts debe ser mayor o igual a Td Ts=5.6 - Td=5.7 2023-11-19 01:53:00
1 2015-06-20 14:00:00 Ts debe ser mayor o igual a Td Ts=9.1 - Td=9.2 2023-11-19 01:53:00
1 2015-06-23 15:00:00 Ts debe ser mayor o igual a Td Ts=5.7 - Td=5.8 2023-11-19 01:53:00
1 2015-07-07 16:00:00 Ts debe ser mayor o igual a Td Ts=9.3 - Td=9.4 2023-11-19 01:53:00
1 2015-07-10 05:00:00 Ts debe ser mayor o igual a Td Ts=8.3 - Td=8.4 2023-11-19 01:53:00
1 2015-07-10 07:00:00 Ts debe ser mayor o igual a Td Ts=7.7 - Td=7.8 2023-11-19 01:53:00
1 2015-07-10 08:00:00 Ts debe ser mayor o igual a Td Ts=7.8 - Td=7.9 2023-11-19 01:53:00
1 2015-07-10 10:00:00 Ts debe ser mayor o igual a Td Ts=7.6 - Td=7.7 2023-11-19 01:53:00
1 2015-07-10 13:00:00 Ts debe ser mayor o igual a Td Ts=9.3 - Td=9.4 2023-11-19 01:53:00
1 2015-07-11 10:00:00 Ts debe ser mayor o igual a Td Ts=8.7 - Td=8.8 2023-11-19 01:53:00
1 2015-07-11 14:00:00 Ts debe ser mayor o igual a Td Ts=10.3 - Td=10.4 2023-11-19 01:53:00
1 2015-07-11 15:00:00 Ts debe ser mayor o igual a Td Ts=10.8 - Td=10.9 2023-11-19 01:53:00
1 2015-07-11 16:00:00 Ts debe ser mayor o igual a Td Ts=10.7 - Td=10.8 2023-11-19 01:53:00
1 2015-07-13 06:00:00 Ts debe ser mayor o igual a Td Ts=7.4 - Td=7.5 2023-11-19 01:53:00
1 2015-07-13 08:00:00 Ts debe ser mayor o igual a Td Ts=7.3 - Td=7.4 2023-11-19 01:53:00
1 2015-07-16 13:00:00 Ts debe ser mayor o igual a Td Ts=8.6 - Td=8.7 2023-11-19 01:53:00
1 2015-07-22 12:00:00 Ts debe ser mayor o igual a Td Ts=5.7 - Td=5.8 2023-11-19 01:53:00
1 2015-07-22 15:00:00 Ts debe ser mayor o igual a Td Ts=8.6 - Td=8.7 2023-11-19 01:53:00
1 2015-07-23 13:00:00 Ts debe ser mayor o igual a Td Ts=5.6 - Td=5.7 2023-11-19 01:53:00
1 2015-07-24 15:00:00 Ts debe ser mayor o igual a Td Ts=8.3 - Td=8.4 2023-11-19 01:53:00
1 2015-07-25 04:00:00 Ts debe ser mayor o igual a Td Ts=9.0 - Td=9.1 2023-11-19 01:53:00
1 2015-07-25 11:00:00 Ts debe ser mayor o igual a Td Ts=8.1 - Td=8.2 2023-11-19 01:53:00
1 2015-07-28 02:00:00 Ts debe ser mayor o igual a Td Ts=10.7 - Td=10.8 2023-11-19 01:53:00
1 2015-07-30 10:00:00 Ts debe ser mayor o igual a Td Ts=5.7 - Td=5.8 2023-11-19 01:53:00
1 2015-08-01 22:00:00 Ts debe ser mayor o igual a Td Ts=11.5 - Td=11.6 2023-11-19 01:53:00
1 2015-08-03 09:00:00 Ts debe ser mayor o igual a Td Ts=4.8 - Td=4.9 2023-11-19 01:53:00
1 2015-08-04 00:00:00 Ts debe ser mayor o igual a Td Ts=7.6 - Td=7.7 2023-11-19 01:53:00
1 2015-08-04 07:00:00 Ts debe ser mayor o igual a Td Ts=6.9 - Td=7.0 2023-11-19 01:53:00
1 2015-08-06 11:00:00 Ts debe ser mayor o igual a Td Ts=11.7 - Td=11.8 2023-11-19 01:53:00
1 2015-08-06 13:00:00 Ts debe ser mayor o igual a Td Ts=11.6 - Td=11.7 2023-11-19 01:53:00
1 2015-08-07 04:00:00 Ts debe ser mayor o igual a Td Ts=9.2 - Td=9.3 2023-11-19 01:53:00
1 2015-08-07 05:00:00 Ts debe ser mayor o igual a Td Ts=8.4 - Td=8.5 2023-11-19 01:53:00
1 2015-08-07 11:00:00 Ts debe ser mayor o igual a Td Ts=9.1 - Td=9.2 2023-11-19 01:53:00
1 2015-08-07 13:00:00 Ts debe ser mayor o igual a Td Ts=10.5 - Td=10.6 2023-11-19 01:53:00
1 2015-08-10 04:00:00 Ts debe ser mayor o igual a Td Ts=7.6 - Td=7.7 2023-11-19 01:53:00
1 2015-08-10 13:00:00 Ts debe ser mayor o igual a Td Ts=7.0 - Td=7.1 2023-11-19 01:53:00
1 2015-08-20 09:00:00 Ts debe ser mayor o igual a Td Ts=5.7 - Td=5.8 2023-11-19 01:53:00
1 2015-08-24 11:00:00 Ts debe ser mayor o igual a Td Ts=5.7 - Td=5.8 2023-11-19 01:53:00
1 2015-08-30 10:00:00 Ts debe ser mayor o igual a Td Ts=10.3 - Td=10.4 2023-11-19 01:54:00
1 2015-08-30 11:00:00 Ts debe ser mayor o igual a Td Ts=10.8 - Td=10.9 2023-11-19 01:54:00
1 2015-08-30 13:00:00 Ts debe ser mayor o igual a Td Ts=11.4 - Td=11.5 2023-11-19 01:54:00
1 2015-09-05 12:00:00 Ts debe ser mayor o igual a Td Ts=7.4 - Td=7.5 2023-11-19 01:54:00
1 2015-10-02 09:00:00 Ts debe ser mayor o igual a Td Ts=7.0 - Td=7.1 2023-11-19 01:54:00
1 2016-04-25 13:00:00 Ts debe ser mayor o igual a Td Ts=5.7 - Td=5.8 2023-11-19 01:57:00
1 2016-05-02 13:00:00 Ts debe ser mayor o igual a Td Ts=10.4 - Td=10.5 2023-11-19 01:57:00
1 2016-05-06 14:00:00 Ts debe ser mayor o igual a Td Ts=10.6 - Td=10.7 2023-11-19 01:57:00
1 2016-05-06 16:00:00 Ts debe ser mayor o igual a Td Ts=14.3 - Td=14.4 2023-11-19 01:57:00
1 2016-05-07 13:00:00 Ts debe ser mayor o igual a Td Ts=10.3 - Td=10.4 2023-11-19 01:57:00
1 2016-05-15 14:00:00 Ts debe ser mayor o igual a Td Ts=13.0 - Td=13.1 2023-11-19 01:57:00
1 2016-05-18 08:00:00 Ts debe ser mayor o igual a Td Ts=8.4 - Td=8.5 2023-11-19 01:57:00
1 2016-05-21 06:00:00 Ts debe ser mayor o igual a Td Ts=9.4 - Td=9.5 2023-11-19 01:57:00
1 2016-05-22 11:00:00 Ts debe ser mayor o igual a Td Ts=8.4 - Td=8.5 2023-11-19 01:57:00
1 2016-05-22 14:00:00 Ts debe ser mayor o igual a Td Ts=8.6 - Td=8.7 2023-11-19 01:57:00
1 2016-05-23 13:00:00 Ts debe ser mayor o igual a Td Ts=8.5 - Td=8.6 2023-11-19 01:57:00
1 2016-05-24 06:00:00 Ts debe ser mayor o igual a Td Ts=7.2 - Td=7.3 2023-11-19 01:57:00
1 2016-05-24 12:00:00 Ts debe ser mayor o igual a Td Ts=6.9 - Td=7.0 2023-11-19 01:57:00
1 2016-05-26 12:00:00 Ts debe ser mayor o igual a Td Ts=10.8 - Td=10.9 2023-11-19 01:57:00
1 2016-05-30 08:00:00 Ts debe ser mayor o igual a Td Ts=10.6 - Td=10.7 2023-11-19 01:57:00
1 2016-05-30 10:00:00 Ts debe ser mayor o igual a Td Ts=10.3 - Td=10.4 2023-11-19 01:57:00
1 2016-05-31 11:00:00 Ts debe ser mayor o igual a Td Ts=7.5 - Td=7.6 2023-11-19 01:57:00
1 2016-06-02 16:00:00 Ts debe ser mayor o igual a Td Ts=7.2 - Td=7.3 2023-11-19 01:57:00
1 2016-06-02 17:00:00 Ts debe ser mayor o igual a Td Ts=7.8 - Td=7.9 2023-11-19 01:57:00
1 2016-06-03 15:00:00 Ts debe ser mayor o igual a Td Ts=8.4 - Td=8.5 2023-11-19 01:57:00
1 2016-06-04 13:00:00 Ts debe ser mayor o igual a Td Ts=8.2 - Td=8.3 2023-11-19 01:57:00
1 2016-06-05 08:00:00 Ts debe ser mayor o igual a Td Ts=4.8 - Td=4.9 2023-11-19 01:57:00
1 2016-06-07 11:00:00 Ts debe ser mayor o igual a Td Ts=4.8 - Td=4.9 2023-11-19 01:57:00
1 2016-06-09 16:00:00 Ts debe ser mayor o igual a Td Ts=7.3 - Td=7.4 2023-11-19 01:57:00
1 2016-06-12 00:00:00 Ts debe ser mayor o igual a Td Ts=4.8 - Td=4.9 2023-11-19 01:57:00
1 2016-06-12 15:00:00 Ts debe ser mayor o igual a Td Ts=6.9 - Td=7.0 2023-11-19 01:57:00
1 2016-06-12 21:00:00 Ts debe ser mayor o igual a Td Ts=8.7 - Td=8.8 2023-11-19 01:57:00
1 2016-06-12 23:00:00 Ts debe ser mayor o igual a Td Ts=8.6 - Td=8.7 2023-11-19 01:57:00
1 2016-06-13 00:00:00 Ts debe ser mayor o igual a Td Ts=8.5 - Td=8.6 2023-11-19 01:57:00
1 2016-06-13 03:00:00 Ts debe ser mayor o igual a Td Ts=8.1 - Td=8.2 2023-11-19 01:57:00
1 2016-06-13 04:00:00 Ts debe ser mayor o igual a Td Ts=8.2 - Td=8.3 2023-11-19 01:57:00
1 2016-06-13 06:00:00 Ts debe ser mayor o igual a Td Ts=7.0 - Td=7.1 2023-11-19 01:57:00
1 2016-06-13 12:00:00 Ts debe ser mayor o igual a Td Ts=5.6 - Td=5.7 2023-11-19 01:57:00
1 2016-06-14 12:00:00 Ts debe ser mayor o igual a Td Ts=6.9 - Td=7.0 2023-11-19 01:57:00
1 2016-06-14 13:00:00 Ts debe ser mayor o igual a Td Ts=7.2 - Td=7.3 2023-11-19 01:57:00
1 2016-06-14 15:00:00 Ts debe ser mayor o igual a Td Ts=7.6 - Td=7.7 2023-11-19 01:57:00
1 2016-06-14 17:00:00 Ts debe ser mayor o igual a Td Ts=8.2 - Td=8.3 2023-11-19 01:57:00
1 2016-06-14 18:00:00 Ts debe ser mayor o igual a Td Ts=8.9 - Td=9.0 2023-11-19 01:57:00
1 2016-06-15 11:00:00 Ts debe ser mayor o igual a Td Ts=4.8 - Td=4.9 2023-11-19 01:57:00
1 2016-06-20 01:00:00 Ts debe ser mayor o igual a Td Ts=7.3 - Td=7.4 2023-11-19 01:57:00
1 2016-06-23 06:00:00 Ts debe ser mayor o igual a Td Ts=4.8 - Td=4.9 2023-11-19 01:57:00
1 2016-06-23 12:00:00 Ts debe ser mayor o igual a Td Ts=4.8 - Td=4.9 2023-11-19 01:57:00
1 2016-06-23 16:00:00 Ts debe ser mayor o igual a Td Ts=7.1 - Td=7.2 2023-11-19 01:57:00
1 2016-06-24 00:00:00 Ts debe ser mayor o igual a Td Ts=7.8 - Td=7.9 2023-11-19 01:57:00
1 2016-06-29 07:00:00 Ts debe ser mayor o igual a Td Ts=7.4 - Td=7.5 2023-11-19 01:57:00
1 2016-06-29 08:00:00 Ts debe ser mayor o igual a Td Ts=7.6 - Td=7.7 2023-11-19 01:57:00
1 2016-07-07 17:00:00 Ts debe ser mayor o igual a Td Ts=8.3 - Td=8.4 2023-11-19 01:58:00
1 2016-07-08 16:00:00 Ts debe ser mayor o igual a Td Ts=8.9 - Td=9.0 2023-11-19 01:58:00
1 2016-07-09 07:00:00 Ts debe ser mayor o igual a Td Ts=5.7 - Td=5.8 2023-11-19 01:58:00
1 2016-07-09 09:00:00 Ts debe ser mayor o igual a Td Ts=5.6 - Td=5.7 2023-11-19 01:58:00
1 2016-07-18 16:00:00 Ts debe ser mayor o igual a Td Ts=8.8 - Td=8.9 2023-11-19 01:58:00
1 2016-07-19 11:00:00 Ts debe ser mayor o igual a Td Ts=7.2 - Td=7.3 2023-11-19 01:58:00
1 2016-07-19 13:00:00 Ts debe ser mayor o igual a Td Ts=8.3 - Td=8.4 2023-11-19 01:58:00
1 2016-07-20 13:00:00 Ts debe ser mayor o igual a Td Ts=8.4 - Td=8.5 2023-11-19 01:58:00
1 2016-07-22 08:00:00 Ts debe ser mayor o igual a Td Ts=9.4 - Td=9.5 2023-11-19 01:58:00
1 2016-07-22 09:00:00 Ts debe ser mayor o igual a Td Ts=9.2 - Td=9.3 2023-11-19 01:58:00
1 2016-07-22 12:00:00 Ts debe ser mayor o igual a Td Ts=8.3 - Td=8.4 2023-11-19 01:58:00
1 2016-07-30 14:00:00 Ts debe ser mayor o igual a Td Ts=8.4 - Td=8.5 2023-11-19 01:58:00
1 2016-08-03 11:00:00 Ts debe ser mayor o igual a Td Ts=5.6 - Td=5.7 2023-11-19 01:58:00
1 2016-08-04 14:00:00 Ts debe ser mayor o igual a Td Ts=9.0 - Td=9.1 2023-11-19 01:58:00
1 2016-08-05 15:00:00 Ts debe ser mayor o igual a Td Ts=7.8 - Td=7.9 2023-11-19 01:58:00
1 2016-08-08 11:00:00 Ts debe ser mayor o igual a Td Ts=8.3 - Td=8.4 2023-11-19 01:58:00
1 2016-08-08 14:00:00 Ts debe ser mayor o igual a Td Ts=8.5 - Td=8.6 2023-11-19 01:58:00
1 2016-08-14 06:00:00 Ts debe ser mayor o igual a Td Ts=10.7 - Td=10.8 2023-11-19 01:58:00
1 2016-08-14 15:00:00 Ts debe ser mayor o igual a Td Ts=12.9 - Td=13.0 2023-11-19 01:58:00
1 2016-08-15 13:00:00 Ts debe ser mayor o igual a Td Ts=12.4 - Td=12.5 2023-11-19 01:58:00
1 2017-05-20 14:00:00 Ts debe ser mayor o igual a Td Ts=4.8 - Td=4.9 2023-11-19 02:02:00
1 2017-05-23 05:00:00 Ts debe ser mayor o igual a Td Ts=4.8 - Td=4.9 2023-11-19 02:02:00
1 2017-06-01 16:00:00 Ts debe ser mayor o igual a Td Ts=8.3 - Td=8.4 2023-11-19 02:03:00
1 2017-06-03 13:00:00 Ts debe ser mayor o igual a Td Ts=7.1 - Td=7.2 2023-11-19 02:03:00
1 2017-06-03 14:00:00 Ts debe ser mayor o igual a Td Ts=9.1 - Td=9.2 2023-11-19 02:03:00
1 2017-06-08 18:00:00 Ts debe ser mayor o igual a Td Ts=8.2 - Td=8.3 2023-11-19 02:03:00
1 2017-06-10 09:00:00 Ts debe ser mayor o igual a Td Ts=8.1 - Td=8.2 2023-11-19 02:03:00
1 2017-06-10 13:00:00 Ts debe ser mayor o igual a Td Ts=7.3 - Td=7.4 2023-11-19 02:03:00
1 2017-06-14 14:00:00 Ts debe ser mayor o igual a Td Ts=8.7 - Td=8.8 2023-11-19 02:03:00
1 2017-06-23 14:00:00 Ts debe ser mayor o igual a Td Ts=10.5 - Td=10.6 2023-11-19 02:03:00
1 2017-06-24 11:00:00 Ts debe ser mayor o igual a Td Ts=9.3 - Td=9.4 2023-11-19 02:03:00
1 2017-06-25 19:00:00 Ts debe ser mayor o igual a Td Ts=12.9 - Td=13.0 2023-11-19 02:03:00
1 2017-06-29 08:00:00 Ts debe ser mayor o igual a Td Ts=7.3 - Td=7.4 2023-11-19 02:03:00
1 2017-06-29 09:00:00 Ts debe ser mayor o igual a Td Ts=7.3 - Td=7.4 2023-11-19 02:03:00
1 2017-06-29 15:00:00 Ts debe ser mayor o igual a Td Ts=9.3 - Td=9.4 2023-11-19 02:03:00
1 2017-07-02 13:00:00 Ts debe ser mayor o igual a Td Ts=7.4 - Td=7.5 2023-11-19 02:03:00
1 2017-07-02 14:00:00 Ts debe ser mayor o igual a Td Ts=8.7 - Td=8.8 2023-11-19 02:03:00
1 2017-07-02 18:00:00 Ts debe ser mayor o igual a Td Ts=10.4 - Td=10.5 2023-11-19 02:03:00
1 2017-07-02 20:00:00 Ts debe ser mayor o igual a Td Ts=10.3 - Td=10.4 2023-11-19 02:03:00
1 2017-07-05 19:00:00 Ts debe ser mayor o igual a Td Ts=6.9 - Td=7.0 2023-11-19 02:03:00
1 2017-07-08 07:00:00 Ts debe ser mayor o igual a Td Ts=7.7 - Td=7.8 2023-11-19 02:03:00
1 2017-07-08 09:00:00 Ts debe ser mayor o igual a Td Ts=7.0 - Td=7.1 2023-11-19 02:03:00
1 2017-07-21 14:00:00 Ts debe ser mayor o igual a Td Ts=8.4 - Td=8.5 2023-11-19 02:03:00
1 2017-07-27 19:00:00 Ts debe ser mayor o igual a Td Ts=8.2 - Td=8.3 2023-11-19 02:03:00
1 2017-08-04 16:00:00 Ts debe ser mayor o igual a Td Ts=5.6 - Td=5.7 2023-11-19 02:03:00
1 2017-08-12 16:00:00 Ts debe ser mayor o igual a Td Ts=7.5 - Td=7.6 2023-11-19 02:04:00
1 2017-08-14 11:00:00 Ts debe ser mayor o igual a Td Ts=7.3 - Td=7.4 2023-11-19 02:04:00
1 2017-08-29 14:00:00 Ts debe ser mayor o igual a Td Ts=7.4 - Td=7.5 2023-11-19 02:04:00
1 2018-04-29 13:00:00 Ts debe ser mayor o igual a Td Ts=8.6 - Td=8.7 2023-11-19 02:07:00
1 2018-04-29 14:00:00 Ts debe ser mayor o igual a Td Ts=8.8 - Td=8.9 2023-11-19 02:07:00
1 2018-04-29 15:00:00 Ts debe ser mayor o igual a Td Ts=9.4 - Td=9.5 2023-11-19 02:07:00
1 2018-05-08 12:00:00 Ts debe ser mayor o igual a Td Ts=10.3 - Td=10.4 2023-11-19 02:07:00
1 2018-05-11 15:00:00 Ts debe ser mayor o igual a Td Ts=9.4 - Td=9.5 2023-11-19 02:07:00
1 2018-05-20 14:00:00 Ts debe ser mayor o igual a Td Ts=7.5 - Td=7.6 2023-11-19 02:07:00
1 2018-05-24 17:00:00 Ts debe ser mayor o igual a Td Ts=7.6 - Td=7.7 2023-11-19 02:08:00
1 2018-05-29 14:00:00 Ts debe ser mayor o igual a Td Ts=11.7 - Td=11.8 2023-11-19 02:08:00
1 2018-06-06 09:00:00 Ts debe ser mayor o igual a Td Ts=6.9 - Td=7.0 2023-11-19 02:08:00
1 2018-06-06 10:00:00 Ts debe ser mayor o igual a Td Ts=7.0 - Td=7.1 2023-11-19 02:08:00
1 2018-06-09 07:00:00 Ts debe ser mayor o igual a Td Ts=9.2 - Td=9.3 2023-11-19 02:08:00
1 2018-06-17 07:00:00 Ts debe ser mayor o igual a Td Ts=8.9 - Td=9.0 2023-11-19 02:08:00
1 2018-06-17 14:00:00 Ts debe ser mayor o igual a Td Ts=8.1 - Td=8.2 2023-11-19 02:08:00
1 2018-06-17 16:00:00 Ts debe ser mayor o igual a Td Ts=8.5 - Td=8.6 2023-11-19 02:08:00
1 2018-06-18 08:00:00 Ts debe ser mayor o igual a Td Ts=7.3 - Td=7.4 2023-11-19 02:08:00
1 2018-06-18 17:00:00 Ts debe ser mayor o igual a Td Ts=9.1 - Td=9.2 2023-11-19 02:08:00
1 2018-06-18 22:00:00 Ts debe ser mayor o igual a Td Ts=9.4 - Td=9.5 2023-11-19 02:08:00
1 2018-06-19 00:00:00 Ts debe ser mayor o igual a Td Ts=9.2 - Td=9.3 2023-11-19 02:08:00
1 2018-06-19 01:00:00 Ts debe ser mayor o igual a Td Ts=9.1 - Td=9.2 2023-11-19 02:08:00
1 2018-06-19 06:00:00 Ts debe ser mayor o igual a Td Ts=7.7 - Td=7.8 2023-11-19 02:08:00
1 2018-06-19 11:00:00 Ts debe ser mayor o igual a Td Ts=7.3 - Td=7.4 2023-11-19 02:08:00
1 2018-06-19 16:00:00 Ts debe ser mayor o igual a Td Ts=8.4 - Td=8.5 2023-11-19 02:08:00
1 2018-06-19 18:00:00 Ts debe ser mayor o igual a Td Ts=8.1 - Td=8.2 2023-11-19 02:08:00
1 2018-06-20 02:00:00 Ts debe ser mayor o igual a Td Ts=8.7 - Td=8.8 2023-11-19 02:08:00
1 2018-06-20 03:00:00 Ts debe ser mayor o igual a Td Ts=8.6 - Td=8.7 2023-11-19 02:08:00
1 2018-06-20 12:00:00 Ts debe ser mayor o igual a Td Ts=8.1 - Td=8.2 2023-11-19 02:08:00
1 2018-06-28 11:00:00 Ts debe ser mayor o igual a Td Ts=9.3 - Td=9.4 2023-11-19 02:08:00
1 2018-06-28 12:00:00 Ts debe ser mayor o igual a Td Ts=9.3 - Td=9.4 2023-11-19 02:08:00
1 2018-06-28 16:00:00 Ts debe ser mayor o igual a Td Ts=10.5 - Td=10.6 2023-11-19 02:08:00
1 2018-06-30 12:00:00 Ts debe ser mayor o igual a Td Ts=8.7 - Td=8.8 2023-11-19 02:08:00
1 2018-07-03 09:00:00 Ts debe ser mayor o igual a Td Ts=8.4 - Td=8.5 2023-11-19 02:08:00
1 2018-07-03 10:00:00 Ts debe ser mayor o igual a Td Ts=8.4 - Td=8.5 2023-11-19 02:08:00
1 2018-07-13 09:00:00 Ts debe ser mayor o igual a Td Ts=7.2 - Td=7.3 2023-11-19 02:08:00
1 2018-07-13 13:00:00 Ts debe ser mayor o igual a Td Ts=8.6 - Td=8.7 2023-11-19 02:08:00
1 2018-07-14 10:00:00 Ts debe ser mayor o igual a Td Ts=10.5 - Td=10.6 2023-11-19 02:08:00
1 2018-07-15 03:00:00 Ts debe ser mayor o igual a Td Ts=9.1 - Td=9.2 2023-11-19 02:08:00
1 2018-07-15 04:00:00 Ts debe ser mayor o igual a Td Ts=8.8 - Td=8.9 2023-11-19 02:08:00
1 2018-07-26 17:00:00 Ts debe ser mayor o igual a Td Ts=4.8 - Td=4.9 2023-11-19 02:09:00
1 2018-08-07 06:00:00 Ts debe ser mayor o igual a Td Ts=8.9 - Td=9.0 2023-11-19 02:09:00
1 2018-08-07 07:00:00 Ts debe ser mayor o igual a Td Ts=8.8 - Td=8.9 2023-11-19 02:09:00
1 2018-08-12 14:00:00 Ts debe ser mayor o igual a Td Ts=7.6 - Td=7.7 2023-11-19 02:09:00
1 2018-08-28 14:00:00 Ts debe ser mayor o igual a Td Ts=8.4 - Td=8.5 2023-11-19 02:09:00
1 2018-09-01 13:00:00 Ts debe ser mayor o igual a Td Ts=7.0 - Td=7.1 2023-11-19 02:09:00
1 2018-09-02 14:00:00 Ts debe ser mayor o igual a Td Ts=7.4 - Td=7.5 2023-11-19 02:09:00
1 2018-09-23 12:00:00 Ts debe ser mayor o igual a Td Ts=7.1 - Td=7.2 2023-11-19 02:10:00
1 2018-10-30 09:00:00 Ts debe ser mayor o igual a Td Ts=10.4 - Td=10.5 2023-11-19 02:10:00
1 2019-04-25 11:00:00 Ts debe ser mayor o igual a Td Ts=7.2 - Td=7.3 2023-11-19 02:13:00
1 2019-04-25 13:00:00 Ts debe ser mayor o igual a Td Ts=8.7 - Td=8.8 2023-11-19 02:13:00
1 2019-05-10 11:00:00 Ts debe ser mayor o igual a Td Ts=5.6 - Td=5.7 2023-11-19 02:13:00
1 2019-05-16 06:00:00 Ts debe ser mayor o igual a Td Ts=7.3 - Td=7.4 2023-11-19 02:13:00
1 2019-05-16 09:00:00 Ts debe ser mayor o igual a Td Ts=8.5 - Td=8.6 2023-11-19 02:13:00
1 2019-05-18 01:00:00 Ts debe ser mayor o igual a Td Ts=11.8 - Td=11.9 2023-11-19 02:13:00
1 2019-05-18 04:00:00 Ts debe ser mayor o igual a Td Ts=8.6 - Td=8.7 2023-11-19 02:13:00
1 2019-05-18 05:00:00 Ts debe ser mayor o igual a Td Ts=7.8 - Td=7.9 2023-11-19 02:13:00
1 2019-05-18 08:00:00 Ts debe ser mayor o igual a Td Ts=9.1 - Td=9.2 2023-11-19 02:13:00
1 2019-05-18 11:00:00 Ts debe ser mayor o igual a Td Ts=8.7 - Td=8.8 2023-11-19 02:13:00
1 2019-05-18 13:00:00 Ts debe ser mayor o igual a Td Ts=8.4 - Td=8.5 2023-11-19 02:13:00
1 2019-06-07 05:00:00 Ts debe ser mayor o igual a Td Ts=4.8 - Td=4.9 2023-11-19 02:14:00
1 2019-06-07 15:00:00 Ts debe ser mayor o igual a Td Ts=7.0 - Td=7.1 2023-11-19 02:14:00
1 2019-06-09 17:00:00 Ts debe ser mayor o igual a Td Ts=8.2 - Td=8.3 2023-11-19 02:14:00
1 2019-06-09 19:00:00 Ts debe ser mayor o igual a Td Ts=9.0 - Td=9.1 2023-11-19 02:14:00
1 2019-06-14 02:00:00 Ts debe ser mayor o igual a Td Ts=7.8 - Td=7.9 2023-11-19 02:14:00
1 2019-06-14 06:00:00 Ts debe ser mayor o igual a Td Ts=7.5 - Td=7.6 2023-11-19 02:14:00
1 2019-06-16 12:00:00 Ts debe ser mayor o igual a Td Ts=4.8 - Td=4.9 2023-11-19 02:14:00
1 2019-06-18 11:00:00 Ts debe ser mayor o igual a Td Ts=5.6 - Td=5.7 2023-11-19 02:14:00
1 2019-06-21 09:00:00 Ts debe ser mayor o igual a Td Ts=7.1 - Td=7.2 2023-11-19 02:14:00
1 2019-06-21 13:00:00 Ts debe ser mayor o igual a Td Ts=7.5 - Td=7.6 2023-11-19 02:14:00
1 2019-06-24 03:00:00 Ts debe ser mayor o igual a Td Ts=7.8 - Td=7.9 2023-11-19 02:14:00
1 2019-06-24 05:00:00 Ts debe ser mayor o igual a Td Ts=8.3 - Td=8.4 2023-11-19 02:14:00
1 2019-06-24 07:00:00 Ts debe ser mayor o igual a Td Ts=8.1 - Td=8.2 2023-11-19 02:14:00
1 2019-06-24 08:00:00 Ts debe ser mayor o igual a Td Ts=8.1 - Td=8.2 2023-11-19 02:14:00
1 2019-06-24 11:00:00 Ts debe ser mayor o igual a Td Ts=7.4 - Td=7.5 2023-11-19 02:14:00
1 2019-07-04 07:00:00 Ts debe ser mayor o igual a Td Ts=8.2 - Td=8.3 2023-11-19 02:14:00
1 2019-07-04 09:00:00 Ts debe ser mayor o igual a Td Ts=7.3 - Td=7.4 2023-11-19 02:14:00
1 2019-07-11 08:00:00 Ts debe ser mayor o igual a Td Ts=8.8 - Td=8.9 2023-11-19 02:14:00
1 2019-07-15 09:00:00 Ts debe ser mayor o igual a Td Ts=7.7 - Td=7.8 2023-11-19 02:14:00
1 2019-07-15 10:00:00 Ts debe ser mayor o igual a Td Ts=7.4 - Td=7.5 2023-11-19 02:14:00
1 2019-07-21 09:00:00 Ts debe ser mayor o igual a Td Ts=7.6 - Td=7.7 2023-11-19 02:14:00
1 2019-08-19 13:00:00 Ts debe ser mayor o igual a Td Ts=7.7 - Td=7.8 2023-11-19 02:15:00
1 2019-08-23 14:00:00 Ts debe ser mayor o igual a Td Ts=8.6 - Td=8.7 2023-11-19 02:15:00
1 2019-08-27 07:00:00 Ts debe ser mayor o igual a Td Ts=10.7 - Td=10.8 2023-11-19 02:15:00
1 2019-08-28 11:00:00 Ts debe ser mayor o igual a Td Ts=10.7 - Td=10.8 2023-11-19 02:15:00
1 2019-08-28 16:00:00 Ts debe ser mayor o igual a Td Ts=12.9 - Td=13.0 2023-11-19 02:15:00
1 2019-09-07 11:00:00 Ts debe ser mayor o igual a Td Ts=8.4 - Td=8.5 2023-11-19 02:15:00
1 2019-09-07 12:00:00 Ts debe ser mayor o igual a Td Ts=8.8 - Td=8.9 2023-11-19 02:15:00
1 2019-10-01 06:00:00 Ts debe ser mayor o igual a Td Ts=2.8 - Td=3.0 2023-11-08 09:35:00
1 2019-10-01 09:00:00 Ts debe ser mayor o igual a Td Ts=0.9 - Td=1.3 2023-11-08 09:35:00
1 2019-10-01 11:00:00 Ts debe ser mayor o igual a Td Ts=0.8 - Td=1.3 2023-11-08 09:35:00
1 2019-10-01 12:00:00 Ts debe ser mayor o igual a Td Ts=1.3 - Td=4.1 2023-11-08 09:35:00
1 2019-10-01 12:00:00 HR (Humedad Relativa) es igual a 100% y Ts <> Td 1.3 - 4.1 2023-11-08 09:35:00
1 2019-10-01 13:00:00 Ts debe ser mayor o igual a Td Ts=4.1 - Td=8.5 2023-11-08 09:35:00
1 2019-10-01 13:00:00 HR (Humedad Relativa) es igual a 100% y Ts <> Td 4.1 - 8.5 2023-11-08 09:35:00
1 2019-10-01 14:00:00 Ts debe ser mayor o igual a Td Ts=8.7 - Td=9.7 2023-11-08 09:35:00
1 2019-10-02 07:00:00 Ts debe ser mayor o igual a Td Ts=1.8 - Td=2.6 2023-11-08 09:35:00
1 2019-10-02 09:00:00 HR (Humedad Relativa) es igual a 100% y Ts <> Td 2.4 - 1.7 2023-11-08 09:35:00
1 2019-10-02 10:00:00 HR (Humedad Relativa) es igual a 100% y Ts <> Td 1.7 - 1.2 2023-11-08 09:35:00
1 2019-10-02 11:00:00 Ts debe ser mayor o igual a Td Ts=1.2 - Td=1.6 2023-11-08 09:35:00
1 2019-10-02 11:00:00 HR (Humedad Relativa) es igual a 100% y Ts <> Td 1.2 - 1.6 2023-11-08 09:35:00
1 2019-10-02 12:00:00 Ts debe ser mayor o igual a Td Ts=1.6 - Td=3.2 2023-11-08 09:35:00
1 2019-10-02 12:00:00 HR (Humedad Relativa) es igual a 100% y Ts <> Td 1.6 - 3.2 2023-11-08 09:35:00
1 2019-10-02 13:00:00 Ts debe ser mayor o igual a Td Ts=3.2 - Td=5.8 2023-11-08 09:35:00
1 2019-10-02 13:00:00 HR (Humedad Relativa) es igual a 100% y Ts <> Td 3.2 - 5.8 2023-11-08 09:35:00
1 2019-10-02 14:00:00 Ts debe ser mayor o igual a Td Ts=5.8 - Td=7.9 2023-11-08 09:35:00
1 2019-10-02 14:00:00 HR (Humedad Relativa) es igual a 100% y Ts <> Td 5.8 - 7.9 2023-11-08 09:35:00
1 2019-10-02 15:00:00 Ts debe ser mayor o igual a Td Ts=7.9 - Td=10.4 2023-11-08 09:35:00
1 2019-10-02 15:00:00 HR (Humedad Relativa) es igual a 100% y Ts <> Td 7.9 - 10.4 2023-11-08 09:35:00
1 2019-10-03 11:00:00 Ts debe ser mayor o igual a Td Ts=1.8 - Td=3.1 2023-11-08 09:35:00
1 2019-10-03 12:00:00 Ts debe ser mayor o igual a Td Ts=3.2 - Td=6.8 2023-11-08 09:35:00
1 2019-10-03 13:00:00 Ts debe ser mayor o igual a Td Ts=6.8 - Td=7.9 2023-11-08 09:35:00
1 2019-10-03 15:00:00 Ts debe ser mayor o igual a Td Ts=9.5 - Td=9.7 2023-11-08 09:35:00
1 2019-10-04 12:00:00 Ts debe ser mayor o igual a Td Ts=3.0 - Td=4.1 2023-11-08 09:35:00
1 2019-10-04 13:00:00 Ts debe ser mayor o igual a Td Ts=4.7 - Td=6.9 2023-11-08 09:35:00
1 2019-10-06 11:00:00 Ts debe ser mayor o igual a Td Ts=5.3 - Td=6.0 2023-11-08 09:35:00
1 2019-10-06 12:00:00 Ts debe ser mayor o igual a Td Ts=6.4 - Td=7.1 2023-11-08 09:35:00
1 2019-10-06 13:00:00 Ts debe ser mayor o igual a Td Ts=8.3 - Td=9.0 2023-11-08 09:35:00
1 2019-10-07 11:00:00 Ts debe ser mayor o igual a Td Ts=9.2 - Td=10.4 2023-11-08 09:35:00
1 2019-10-07 12:00:00 Ts debe ser mayor o igual a Td Ts=10.7 - Td=11.2 2023-11-08 09:35:00
1 2019-10-07 13:00:00 Ts debe ser mayor o igual a Td Ts=11.7 - Td=11.8 2023-11-08 09:35:00
1 2019-10-11 12:00:00 Ts debe ser mayor o igual a Td Ts=10.4 - Td=10.7 2023-11-08 09:35:00
1 2019-10-15 12:00:00 Ts debe ser mayor o igual a Td Ts=11.7 - Td=12.1 2023-11-08 09:35:00
1 2019-10-16 11:00:00 Ts debe ser mayor o igual a Td Ts=4.9 - Td=6.8 2023-11-08 09:35:00
1 2019-10-16 12:00:00 Ts debe ser mayor o igual a Td Ts=7.4 - Td=8.0 2023-11-08 09:35:00
1 2019-10-16 13:00:00 Ts debe ser mayor o igual a Td Ts=9.2 - Td=9.7 2023-11-08 09:35:00
1 2019-10-18 11:00:00 Ts debe ser mayor o igual a Td Ts=5.3 - Td=5.6 2023-11-08 09:35:00
1 2019-10-19 11:00:00 Ts debe ser mayor o igual a Td Ts=6.4 - Td=8.0 2023-11-08 09:35:00
1 2019-10-19 12:00:00 Ts debe ser mayor o igual a Td Ts=8.4 - Td=9.7 2023-11-08 09:35:00
1 2019-10-21 11:00:00 Ts debe ser mayor o igual a Td Ts=6.0 - Td=6.7 2023-11-08 09:35:00
1 2019-10-21 12:00:00 Ts debe ser mayor o igual a Td Ts=8.1 - Td=8.5 2023-11-08 09:35:00
1 2019-10-23 11:00:00 Ts debe ser mayor o igual a Td Ts=6.7 - Td=7.3 2023-11-08 09:35:00
1 2019-10-25 11:00:00 Ts debe ser mayor o igual a Td Ts=5.7 - Td=7.1 2023-11-08 09:35:00
1 2019-10-25 12:00:00 Ts debe ser mayor o igual a Td Ts=7.7 - Td=8.5 2023-11-08 09:35:00
1 2019-10-28 11:00:00 Ts debe ser mayor o igual a Td Ts=5.3 - Td=7.0 2023-11-08 09:35:00
1 2019-10-28 12:00:00 Ts debe ser mayor o igual a Td Ts=7.3 - Td=10.0 2023-11-08 09:35:00
1 2019-10-28 13:00:00 Ts debe ser mayor o igual a Td Ts=10.6 - Td=11.6 2023-11-08 09:35:00
1 2019-10-29 09:00:00 Ts debe ser mayor o igual a Td Ts=8.5 - Td=9.0 2023-11-08 09:35:00
1 2019-10-29 10:00:00 Ts debe ser mayor o igual a Td Ts=9.3 - Td=9.4 2023-11-08 09:35:00
1 2019-10-29 11:00:00 Ts debe ser mayor o igual a Td Ts=9.6 - Td=10.2 2023-11-08 09:35:00
1 2019-10-29 12:00:00 Ts debe ser mayor o igual a Td Ts=10.3 - Td=11.6 2023-11-08 09:35:00
1 2019-10-29 13:00:00 Ts debe ser mayor o igual a Td Ts=11.7 - Td=13.9 2023-11-08 09:35:00
1 2019-10-30 11:00:00 Ts debe ser mayor o igual a Td Ts=6.3 - Td=7.6 2023-11-08 09:35:00
1 2019-10-30 12:00:00 Ts debe ser mayor o igual a Td Ts=8.1 - Td=8.6 2023-11-08 09:35:00
1 2019-10-31 11:00:00 Ts debe ser mayor o igual a Td Ts=5.7 - Td=6.5 2023-11-08 09:35:00
1 2019-11-02 10:00:00 Ts debe ser mayor o igual a Td Ts=7.2 - Td=7.4 2023-11-08 09:35:00
1 2019-11-02 11:00:00 Ts debe ser mayor o igual a Td Ts=7.8 - Td=7.9 2023-11-08 09:35:00
1 2019-11-02 13:00:00 Ts debe ser mayor o igual a Td Ts=9.7 - Td=9.9 2023-11-08 09:35:00
1 2019-11-04 11:00:00 Ts debe ser mayor o igual a Td Ts=7.8 - Td=9.5 2023-11-08 09:35:00
1 2019-11-04 12:00:00 Ts debe ser mayor o igual a Td Ts=10.0 - Td=10.2 2023-11-08 09:35:00
1 2019-11-06 11:00:00 Ts debe ser mayor o igual a Td Ts=8.1 - Td=8.6 2023-11-08 09:35:00
1 2019-11-07 13:00:00 Ts debe ser mayor o igual a Td Ts=10.1 - Td=10.6 2023-11-08 09:35:00
1 2019-11-11 11:00:00 Ts debe ser mayor o igual a Td Ts=12.6 - Td=12.9 2023-11-08 09:35:00
1 2019-11-12 11:00:00 Ts debe ser mayor o igual a Td Ts=10.5 - Td=12.5 2023-11-08 09:35:00
1 2019-11-12 12:00:00 Ts debe ser mayor o igual a Td Ts=12.8 - Td=14.1 2023-11-08 09:35:00
1 2019-11-12 13:00:00 Ts debe ser mayor o igual a Td Ts=15.7 - Td=16.5 2023-11-08 09:35:00
1 2019-11-13 11:00:00 Ts debe ser mayor o igual a Td Ts=11.6 - Td=12.3 2023-11-08 09:35:00
1 2019-11-15 11:00:00 Ts debe ser mayor o igual a Td Ts=13.6 - Td=14.0 2023-11-08 09:35:00
1 2019-11-16 12:00:00 Ts debe ser mayor o igual a Td Ts=14.6 - Td=14.8 2023-11-08 09:35:00
1 2019-11-17 10:00:00 Ts debe ser mayor o igual a Td Ts=8.1 - Td=8.8 2023-11-08 09:35:00
1 2019-11-17 11:00:00 Ts debe ser mayor o igual a Td Ts=9.2 - Td=10.9 2023-11-08 09:35:00
1 2019-11-20 10:00:00 Ts debe ser mayor o igual a Td Ts=9.2 - Td=10.4 2023-11-08 09:35:00
1 2019-11-20 11:00:00 Ts debe ser mayor o igual a Td Ts=11.6 - Td=13.1 2023-11-08 09:35:00
1 2019-11-22 11:00:00 Ts debe ser mayor o igual a Td Ts=9.4 - Td=11.5 2023-11-08 09:36:00
1 2019-11-23 10:00:00 Ts debe ser mayor o igual a Td Ts=9.9 - Td=10.1 2023-11-08 09:36:00
1 2019-11-23 11:00:00 Ts debe ser mayor o igual a Td Ts=10.5 - Td=12.5 2023-11-08 09:36:00
1 2019-11-23 12:00:00 Ts debe ser mayor o igual a Td Ts=13.1 - Td=13.5 2023-11-08 09:36:00
1 2019-11-26 11:00:00 Ts debe ser mayor o igual a Td Ts=5.9 - Td=6.4 2023-11-08 09:36:00
1 2019-12-02 11:00:00 Ts debe ser mayor o igual a Td Ts=11.8 - Td=12.5 2023-11-08 09:36:00
1 2019-12-07 11:00:00 Ts debe ser mayor o igual a Td Ts=10.7 - Td=11.9 2023-11-08 09:36:00
1 2019-12-08 11:00:00 Ts debe ser mayor o igual a Td Ts=11.0 - Td=13.2 2023-11-08 09:36:00
1 2019-12-10 11:00:00 Ts debe ser mayor o igual a Td Ts=10.9 - Td=12.3 2023-11-08 09:36:00
1 2019-12-11 11:00:00 Ts debe ser mayor o igual a Td Ts=10.4 - Td=11.8 2023-11-08 09:36:00
1 2019-12-13 11:00:00 Ts debe ser mayor o igual a Td Ts=9.8 - Td=10.2 2023-11-08 09:36:00
Errores del Nivel 512
Informe generado el 05-03-2024 09:47
Requerimiento: RE6001